sensor_id;sensor_type;location;lat;lon;timestamp;P1;durP1;ratioP1;P2;durP2;ratioP2
59024;SDS011;44806;48.008;13.666;2023-06-26T00:00:11;7.80;;;3.72;;
59024;SDS011;44806;48.008;13.666;2023-06-26T00:02:38;8.82;;;3.85;;
59024;SDS011;44806;48.008;13.666;2023-06-26T00:05:06;7.82;;;3.53;;
59024;SDS011;44806;48.008;13.666;2023-06-26T00:07:33;8.48;;;4.43;;
59024;SDS011;44806;48.008;13.666;2023-06-26T00:10:00;9.68;;;4.53;;
59024;SDS011;44806;48.008;13.666;2023-06-26T00:12:28;9.23;;;4.95;;
59024;SDS011;44806;48.008;13.666;2023-06-26T00:14:57;7.32;;;4.03;;
59024;SDS011;44806;48.008;13.666;2023-06-26T00:17:24;10.63;;;4.53;;
59024;SDS011;44806;48.008;13.666;2023-06-26T00:19:51;11.75;;;4.22;;
59024;SDS011;44806;48.008;13.666;2023-06-26T00:22:18;8.80;;;4.05;;
59024;SDS011;44806;48.008;13.666;2023-06-26T00:24:47;10.80;;;4.78;;
59024;SDS011;44806;48.008;13.666;2023-06-26T00:27:14;12.02;;;4.78;;
59024;SDS011;44806;48.008;13.666;2023-06-26T00:29:41;11.07;;;4.50;;
59024;SDS011;44806;48.008;13.666;2023-06-26T00:32:09;9.35;;;4.45;;
59024;SDS011;44806;48.008;13.666;2023-06-26T00:34:36;8.98;;;4.43;;
59024;SDS011;44806;48.008;13.666;2023-06-26T00:37:03;8.80;;;4.20;;
59024;SDS011;44806;48.008;13.666;2023-06-26T00:39:30;10.55;;;4.80;;
59024;SDS011;44806;48.008;13.666;2023-06-26T00:41:58;9.75;;;5.43;;
59024;SDS011;44806;48.008;13.666;2023-06-26T00:44:25;9.85;;;4.57;;
59024;SDS011;44806;48.008;13.666;2023-06-26T00:46:52;8.85;;;3.53;;
59024;SDS011;44806;48.008;13.666;2023-06-26T00:49:21;9.13;;;4.18;;
59024;SDS011;44806;48.008;13.666;2023-06-26T00:51:48;11.50;;;5.00;;
59024;SDS011;44806;48.008;13.666;2023-06-26T00:54:15;10.82;;;5.18;;
59024;SDS011;44806;48.008;13.666;2023-06-26T00:56:45;10.25;;;4.80;;
59024;SDS011;44806;48.008;13.666;2023-06-26T00:59:12;11.40;;;5.47;;
59024;SDS011;44806;48.008;13.666;2023-06-26T01:01:39;9.48;;;4.80;;
59024;SDS011;44806;48.008;13.666;2023-06-26T01:04:06;9.93;;;5.03;;
59024;SDS011;44806;48.008;13.666;2023-06-26T01:06:44;10.77;;;5.17;;
59024;SDS011;44806;48.008;13.666;2023-06-26T01:09:14;9.90;;;5.18;;
59024;SDS011;44806;48.008;13.666;2023-06-26T01:11:43;10.05;;;4.68;;
59024;SDS011;44806;48.008;13.666;2023-06-26T01:14:11;11.13;;;6.07;;
59024;SDS011;44806;48.008;13.666;2023-06-26T01:16:38;10.73;;;4.78;;
59024;SDS011;44806;48.008;13.666;2023-06-26T01:19:08;10.70;;;4.85;;
59024;SDS011;44806;48.008;13.666;2023-06-26T01:21:40;10.77;;;4.25;;
59024;SDS011;44806;48.008;13.666;2023-06-26T01:24:15;12.07;;;6.45;;
59024;SDS011;44806;48.008;13.666;2023-06-26T01:26:47;9.65;;;5.25;;
59024;SDS011;44806;48.008;13.666;2023-06-26T01:29:16;9.18;;;4.72;;
59024;SDS011;44806;48.008;13.666;2023-06-26T01:31:44;10.45;;;5.03;;
59024;SDS011;44806;48.008;13.666;2023-06-26T01:34:14;9.65;;;5.15;;
59024;SDS011;44806;48.008;13.666;2023-06-26T01:36:41;11.57;;;4.38;;
59024;SDS011;44806;48.008;13.666;2023-06-26T01:39:09;9.88;;;4.35;;
59024;SDS011;44806;48.008;13.666;2023-06-26T01:41:36;10.50;;;4.78;;
59024;SDS011;44806;48.008;13.666;2023-06-26T01:44:09;12.00;;;4.97;;
59024;SDS011;44806;48.008;13.666;2023-06-26T01:46:46;9.20;;;4.70;;
59024;SDS011;44806;48.008;13.666;2023-06-26T01:49:21;10.77;;;4.05;;
59024;SDS011;44806;48.008;13.666;2023-06-26T01:51:57;10.02;;;4.45;;
59024;SDS011;44806;48.008;13.666;2023-06-26T01:54:35;10.55;;;4.95;;
59024;SDS011;44806;48.008;13.666;2023-06-26T01:57:08;9.68;;;5.07;;
59024;SDS011;44806;48.008;13.666;2023-06-26T01:59:38;9.80;;;5.10;;
59024;SDS011;44806;48.008;13.666;2023-06-26T02:02:08;10.40;;;4.85;;
59024;SDS011;44806;48.008;13.666;2023-06-26T02:04:35;10.93;;;4.68;;
59024;SDS011;44806;48.008;13.666;2023-06-26T02:07:02;10.30;;;4.88;;
59024;SDS011;44806;48.008;13.666;2023-06-26T02:09:30;9.32;;;4.03;;
59024;SDS011;44806;48.008;13.666;2023-06-26T02:11:57;10.57;;;4.72;;
59024;SDS011;44806;48.008;13.666;2023-06-26T02:14:24;11.05;;;4.57;;
59024;SDS011;44806;48.008;13.666;2023-06-26T02:16:52;9.10;;;4.57;;
59024;SDS011;44806;48.008;13.666;2023-06-26T02:19:19;11.93;;;4.45;;
59024;SDS011;44806;48.008;13.666;2023-06-26T02:21:46;8.70;;;4.25;;
59024;SDS011;44806;48.008;13.666;2023-06-26T02:24:14;9.25;;;3.78;;
59024;SDS011;44806;48.008;13.666;2023-06-26T02:26:41;8.10;;;4.40;;
59024;SDS011;44806;48.008;13.666;2023-06-26T02:29:08;10.60;;;4.65;;
59024;SDS011;44806;48.008;13.666;2023-06-26T02:34:42;9.00;;;4.57;;
59024;SDS011;44806;48.008;13.666;2023-06-26T02:37:09;9.35;;;4.82;;
59024;SDS011;44806;48.008;13.666;2023-06-26T02:39:36;8.75;;;4.40;;
59024;SDS011;44806;48.008;13.666;2023-06-26T02:42:03;10.20;;;4.85;;
59024;SDS011;44806;48.008;13.666;2023-06-26T02:44:30;9.02;;;4.43;;
59024;SDS011;44806;48.008;13.666;2023-06-26T02:46:58;10.25;;;4.55;;
59024;SDS011;44806;48.008;13.666;2023-06-26T02:49:25;10.32;;;4.55;;
59024;SDS011;44806;48.008;13.666;2023-06-26T02:51:53;9.07;;;4.65;;
59024;SDS011;44806;48.008;13.666;2023-06-26T02:54:20;11.32;;;4.40;;
59024;SDS011;44806;48.008;13.666;2023-06-26T02:56:47;10.30;;;4.90;;
59024;SDS011;44806;48.008;13.666;2023-06-26T02:59:14;9.13;;;5.07;;
59024;SDS011;44806;48.008;13.666;2023-06-26T03:01:41;8.70;;;4.00;;
59024;SDS011;44806;48.008;13.666;2023-06-26T03:04:08;8.65;;;4.13;;
59024;SDS011;44806;48.008;13.666;2023-06-26T03:06:35;9.23;;;3.65;;
59024;SDS011;44806;48.008;13.666;2023-06-26T03:09:03;9.07;;;3.88;;
59024;SDS011;44806;48.008;13.666;2023-06-26T03:11:30;8.85;;;4.88;;
59024;SDS011;44806;48.008;13.666;2023-06-26T03:13:57;11.32;;;3.78;;
59024;SDS011;44806;48.008;13.666;2023-06-26T03:16:24;9.35;;;4.72;;
59024;SDS011;44806;48.008;13.666;2023-06-26T03:18:51;9.77;;;4.45;;
59024;SDS011;44806;48.008;13.666;2023-06-26T03:21:18;10.32;;;5.28;;
59024;SDS011;44806;48.008;13.666;2023-06-26T03:23:45;9.48;;;4.22;;
59024;SDS011;44806;48.008;13.666;2023-06-26T03:26:13;8.77;;;4.60;;
59024;SDS011;44806;48.008;13.666;2023-06-26T03:28:40;8.93;;;4.20;;
59024;SDS011;44806;48.008;13.666;2023-06-26T03:31:08;9.57;;;4.10;;
59024;SDS011;44806;48.008;13.666;2023-06-26T03:33:35;8.93;;;3.85;;
59024;SDS011;44806;48.008;13.666;2023-06-26T03:36:03;10.70;;;4.90;;
59024;SDS011;44806;48.008;13.666;2023-06-26T03:38:31;11.63;;;4.88;;
59024;SDS011;44806;48.008;13.666;2023-06-26T03:40:58;10.25;;;4.70;;
59024;SDS011;44806;48.008;13.666;2023-06-26T03:43:26;8.45;;;4.30;;
59024;SDS011;44806;48.008;13.666;2023-06-26T03:45:53;10.45;;;4.47;;
59024;SDS011;44806;48.008;13.666;2023-06-26T03:48:20;10.80;;;4.25;;
59024;SDS011;44806;48.008;13.666;2023-06-26T03:50:47;10.65;;;4.15;;
59024;SDS011;44806;48.008;13.666;2023-06-26T03:53:14;9.43;;;4.43;;
59024;SDS011;44806;48.008;13.666;2023-06-26T03:55:41;8.75;;;3.90;;
59024;SDS011;44806;48.008;13.666;2023-06-26T03:58:08;10.50;;;4.75;;
59024;SDS011;44806;48.008;13.666;2023-06-26T04:00:36;10.75;;;5.28;;
59024;SDS011;44806;48.008;13.666;2023-06-26T04:03:03;9.23;;;5.10;;
59024;SDS011;44806;48.008;13.666;2023-06-26T04:05:30;8.85;;;4.63;;
59024;SDS011;44806;48.008;13.666;2023-06-26T04:07:56;9.32;;;4.07;;
59024;SDS011;44806;48.008;13.666;2023-06-26T04:10:23;8.52;;;3.85;;
59024;SDS011;44806;48.008;13.666;2023-06-26T04:12:50;14.60;;;6.18;;
59024;SDS011;44806;48.008;13.666;2023-06-26T04:15:18;9.57;;;4.65;;
59024;SDS011;44806;48.008;13.666;2023-06-26T04:17:46;12.15;;;4.82;;
59024;SDS011;44806;48.008;13.666;2023-06-26T04:20:13;9.10;;;3.97;;
59024;SDS011;44806;48.008;13.666;2023-06-26T04:22:40;8.15;;;3.92;;
59024;SDS011;44806;48.008;13.666;2023-06-26T04:25:07;10.57;;;4.60;;
59024;SDS011;44806;48.008;13.666;2023-06-26T04:27:34;8.63;;;4.63;;
59024;SDS011;44806;48.008;13.666;2023-06-26T04:30:01;10.10;;;4.18;;
59024;SDS011;44806;48.008;13.666;2023-06-26T04:32:28;9.95;;;4.45;;
59024;SDS011;44806;48.008;13.666;2023-06-26T04:34:56;12.10;;;5.35;;
59024;SDS011;44806;48.008;13.666;2023-06-26T04:37:23;9.10;;;3.97;;
59024;SDS011;44806;48.008;13.666;2023-06-26T04:39:50;11.20;;;5.00;;
59024;SDS011;44806;48.008;13.666;2023-06-26T04:42:17;9.52;;;5.05;;
59024;SDS011;44806;48.008;13.666;2023-06-26T04:44:46;10.63;;;4.97;;
59024;SDS011;44806;48.008;13.666;2023-06-26T04:47:13;10.00;;;4.95;;
59024;SDS011;44806;48.008;13.666;2023-06-26T04:49:41;9.65;;;4.30;;
59024;SDS011;44806;48.008;13.666;2023-06-26T04:52:12;9.82;;;4.15;;
59024;SDS011;44806;48.008;13.666;2023-06-26T04:54:39;10.35;;;4.40;;
59024;SDS011;44806;48.008;13.666;2023-06-26T04:57:06;12.32;;;4.75;;
59024;SDS011;44806;48.008;13.666;2023-06-26T04:59:34;11.85;;;5.25;;
59024;SDS011;44806;48.008;13.666;2023-06-26T05:02:02;10.00;;;4.57;;
59024;SDS011;44806;48.008;13.666;2023-06-26T05:04:30;9.07;;;3.83;;
59024;SDS011;44806;48.008;13.666;2023-06-26T05:06:56;8.93;;;4.07;;
59024;SDS011;44806;48.008;13.666;2023-06-26T05:09:25;8.95;;;4.80;;
59024;SDS011;44806;48.008;13.666;2023-06-26T05:11:52;9.65;;;5.07;;
59024;SDS011;44806;48.008;13.666;2023-06-26T05:14:19;8.68;;;3.90;;
59024;SDS011;44806;48.008;13.666;2023-06-26T05:16:46;7.47;;;3.65;;
59024;SDS011;44806;48.008;13.666;2023-06-26T05:19:13;9.65;;;3.90;;
59024;SDS011;44806;48.008;13.666;2023-06-26T05:21:39;7.18;;;3.08;;
59024;SDS011;44806;48.008;13.666;2023-06-26T05:24:08;8.38;;;3.50;;
59024;SDS011;44806;48.008;13.666;2023-06-26T05:26:37;9.80;;;4.78;;
59024;SDS011;44806;48.008;13.666;2023-06-26T05:29:05;9.50;;;4.25;;
59024;SDS011;44806;48.008;13.666;2023-06-26T05:31:32;8.98;;;4.80;;
59024;SDS011;44806;48.008;13.666;2023-06-26T05:34:01;8.00;;;3.70;;
59024;SDS011;44806;48.008;13.666;2023-06-26T05:36:30;8.73;;;3.42;;
59024;SDS011;44806;48.008;13.666;2023-06-26T05:39:00;7.45;;;3.20;;
59024;SDS011;44806;48.008;13.666;2023-06-26T05:41:27;9.38;;;3.97;;
59024;SDS011;44806;48.008;13.666;2023-06-26T05:43:56;9.50;;;4.13;;
59024;SDS011;44806;48.008;13.666;2023-06-26T05:46:23;8.75;;;3.97;;
59024;SDS011;44806;48.008;13.666;2023-06-26T05:48:50;8.73;;;3.40;;
59024;SDS011;44806;48.008;13.666;2023-06-26T05:51:17;8.52;;;3.85;;
59024;SDS011;44806;48.008;13.666;2023-06-26T05:53:45;6.22;;;3.05;;
59024;SDS011;44806;48.008;13.666;2023-06-26T05:56:12;8.85;;;3.50;;
59024;SDS011;44806;48.008;13.666;2023-06-26T05:58:39;7.22;;;2.97;;
59024;SDS011;44806;48.008;13.666;2023-06-26T06:01:10;7.40;;;3.45;;
59024;SDS011;44806;48.008;13.666;2023-06-26T06:03:38;10.75;;;4.00;;
59024;SDS011;44806;48.008;13.666;2023-06-26T06:06:05;8.48;;;3.42;;
59024;SDS011;44806;48.008;13.666;2023-06-26T06:08:32;10.10;;;4.15;;
59024;SDS011;44806;48.008;13.666;2023-06-26T06:11:00;8.70;;;3.30;;
59024;SDS011;44806;48.008;13.666;2023-06-26T06:13:27;9.52;;;4.15;;
59024;SDS011;44806;48.008;13.666;2023-06-26T06:15:54;10.02;;;3.97;;
59024;SDS011;44806;48.008;13.666;2023-06-26T06:18:23;8.23;;;3.70;;
59024;SDS011;44806;48.008;13.666;2023-06-26T06:20:50;7.72;;;4.35;;
59024;SDS011;44806;48.008;13.666;2023-06-26T06:23:16;8.10;;;3.95;;
59024;SDS011;44806;48.008;13.666;2023-06-26T06:25:43;8.32;;;3.70;;
59024;SDS011;44806;48.008;13.666;2023-06-26T06:28:10;7.43;;;3.42;;
59024;SDS011;44806;48.008;13.666;2023-06-26T06:30:37;8.23;;;3.63;;
59024;SDS011;44806;48.008;13.666;2023-06-26T06:33:04;7.28;;;3.17;;
59024;SDS011;44806;48.008;13.666;2023-06-26T06:35:32;9.07;;;4.57;;
59024;SDS011;44806;48.008;13.666;2023-06-26T06:37:59;8.70;;;4.80;;
59024;SDS011;44806;48.008;13.666;2023-06-26T06:40:26;8.77;;;4.30;;
59024;SDS011;44806;48.008;13.666;2023-06-26T06:42:53;10.20;;;5.05;;
59024;SDS011;44806;48.008;13.666;2023-06-26T06:45:20;9.95;;;4.63;;
59024;SDS011;44806;48.008;13.666;2023-06-26T06:47:47;8.15;;;4.70;;
59024;SDS011;44806;48.008;13.666;2023-06-26T06:50:14;8.15;;;4.57;;
59024;SDS011;44806;48.008;13.666;2023-06-26T06:52:43;8.95;;;4.55;;
59024;SDS011;44806;48.008;13.666;2023-06-26T06:55:10;10.32;;;4.78;;
59024;SDS011;44806;48.008;13.666;2023-06-26T06:57:37;8.32;;;4.85;;
59024;SDS011;44806;48.008;13.666;2023-06-26T07:00:05;8.90;;;4.82;;
59024;SDS011;44806;48.008;13.666;2023-06-26T07:02:34;7.70;;;4.40;;
59024;SDS011;44806;48.008;13.666;2023-06-26T07:05:02;8.45;;;4.55;;
59024;SDS011;44806;48.008;13.666;2023-06-26T07:07:30;7.78;;;4.43;;
59024;SDS011;44806;48.008;13.666;2023-06-26T07:09:59;8.82;;;4.45;;
59024;SDS011;44806;48.008;13.666;2023-06-26T07:12:27;7.88;;;4.32;;
59024;SDS011;44806;48.008;13.666;2023-06-26T07:14:55;7.80;;;4.65;;
59024;SDS011;44806;48.008;13.666;2023-06-26T07:17:22;8.77;;;4.63;;
59024;SDS011;44806;48.008;13.666;2023-06-26T07:19:49;7.90;;;4.88;;
59024;SDS011;44806;48.008;13.666;2023-06-26T07:22:16;10.52;;;4.63;;
59024;SDS011;44806;48.008;13.666;2023-06-26T07:24:45;8.25;;;4.57;;
59024;SDS011;44806;48.008;13.666;2023-06-26T07:27:13;8.20;;;4.43;;
59024;SDS011;44806;48.008;13.666;2023-06-26T07:29:40;7.63;;;5.00;;
59024;SDS011;44806;48.008;13.666;2023-06-26T07:32:07;8.63;;;6.15;;
59024;SDS011;44806;48.008;13.666;2023-06-26T07:34:34;8.23;;;4.60;;
59024;SDS011;44806;48.008;13.666;2023-06-26T07:37:02;9.65;;;4.65;;
59024;SDS011;44806;48.008;13.666;2023-06-26T07:39:29;7.45;;;5.72;;
59024;SDS011;44806;48.008;13.666;2023-06-26T07:41:56;7.03;;;4.30;;
59024;SDS011;44806;48.008;13.666;2023-06-26T07:44:25;10.40;;;4.45;;
59024;SDS011;44806;48.008;13.666;2023-06-26T07:46:52;7.82;;;4.47;;
59024;SDS011;44806;48.008;13.666;2023-06-26T07:49:19;9.23;;;4.80;;
59024;SDS011;44806;48.008;13.666;2023-06-26T07:51:46;9.82;;;5.60;;
59024;SDS011;44806;48.008;13.666;2023-06-26T07:54:13;10.32;;;5.20;;
59024;SDS011;44806;48.008;13.666;2023-06-26T07:56:52;7.90;;;4.55;;
59024;SDS011;44806;48.008;13.666;2023-06-26T07:59:20;7.53;;;5.35;;
59024;SDS011;44806;48.008;13.666;2023-06-26T08:01:49;7.72;;;4.50;;
59024;SDS011;44806;48.008;13.666;2023-06-26T08:04:17;9.48;;;5.68;;
59024;SDS011;44806;48.008;13.666;2023-06-26T08:06:45;7.43;;;4.40;;
59024;SDS011;44806;48.008;13.666;2023-06-26T08:09:13;7.75;;;5.13;;
59024;SDS011;44806;48.008;13.666;2023-06-26T08:11:40;7.20;;;5.00;;
59024;SDS011;44806;48.008;13.666;2023-06-26T08:14:07;7.53;;;5.78;;
59024;SDS011;44806;48.008;13.666;2023-06-26T08:16:34;7.95;;;5.40;;
59024;SDS011;44806;48.008;13.666;2023-06-26T08:19:03;8.50;;;5.53;;
59024;SDS011;44806;48.008;13.666;2023-06-26T08:21:30;7.60;;;5.45;;
59024;SDS011;44806;48.008;13.666;2023-06-26T08:23:57;8.85;;;5.70;;
59024;SDS011;44806;48.008;13.666;2023-06-26T08:26:23;7.40;;;5.60;;
59024;SDS011;44806;48.008;13.666;2023-06-26T08:28:51;7.57;;;5.10;;
59024;SDS011;44806;48.008;13.666;2023-06-26T08:31:17;8.73;;;5.40;;
59024;SDS011;44806;48.008;13.666;2023-06-26T08:33:44;8.55;;;5.68;;
59024;SDS011;44806;48.008;13.666;2023-06-26T08:36:13;9.32;;;5.53;;
59024;SDS011;44806;48.008;13.666;2023-06-26T08:38:40;9.00;;;5.72;;
59024;SDS011;44806;48.008;13.666;2023-06-26T08:41:07;6.50;;;4.80;;
59024;SDS011;44806;48.008;13.666;2023-06-26T08:43:34;7.60;;;5.53;;
59024;SDS011;44806;48.008;13.666;2023-06-26T08:46:02;7.43;;;5.15;;
59024;SDS011;44806;48.008;13.666;2023-06-26T08:48:29;8.68;;;5.18;;
59024;SDS011;44806;48.008;13.666;2023-06-26T08:51:00;7.70;;;5.55;;
59024;SDS011;44806;48.008;13.666;2023-06-26T08:53:36;8.30;;;5.05;;
59024;SDS011;44806;48.008;13.666;2023-06-26T08:56:14;7.38;;;4.97;;
59024;SDS011;44806;48.008;13.666;2023-06-26T08:58:46;7.15;;;5.07;;
59024;SDS011;44806;48.008;13.666;2023-06-26T09:01:13;7.60;;;5.22;;
59024;SDS011;44806;48.008;13.666;2023-06-26T09:03:40;9.25;;;4.90;;
59024;SDS011;44806;48.008;13.666;2023-06-26T09:06:07;6.97;;;5.15;;
59024;SDS011;44806;48.008;13.666;2023-06-26T09:08:36;6.85;;;5.03;;
59024;SDS011;44806;48.008;13.666;2023-06-26T09:11:03;7.85;;;4.82;;
59024;SDS011;44806;48.008;13.666;2023-06-26T09:13:29;6.63;;;4.90;;
59024;SDS011;44806;48.008;13.666;2023-06-26T09:15:57;7.55;;;5.57;;
59024;SDS011;44806;48.008;13.666;2023-06-26T09:18:24;6.25;;;4.65;;
59024;SDS011;44806;48.008;13.666;2023-06-26T09:20:51;7.03;;;5.38;;
59024;SDS011;44806;48.008;13.666;2023-06-26T09:23:18;8.10;;;4.75;;
59024;SDS011;44806;48.008;13.666;2023-06-26T09:25:50;7.78;;;4.93;;
59024;SDS011;44806;48.008;13.666;2023-06-26T09:28:17;7.28;;;5.20;;
59024;SDS011;44806;48.008;13.666;2023-06-26T09:30:45;7.55;;;5.40;;
59024;SDS011;44806;48.008;13.666;2023-06-26T09:33:15;6.85;;;5.20;;
59024;SDS011;44806;48.008;13.666;2023-06-26T09:35:43;6.60;;;4.97;;
59024;SDS011;44806;48.008;13.666;2023-06-26T09:38:11;6.13;;;4.45;;
59024;SDS011;44806;48.008;13.666;2023-06-26T09:40:39;7.07;;;4.88;;
59024;SDS011;44806;48.008;13.666;2023-06-26T09:43:09;7.97;;;5.60;;
59024;SDS011;44806;48.008;13.666;2023-06-26T09:45:39;6.80;;;4.30;;
59024;SDS011;44806;48.008;13.666;2023-06-26T09:48:06;6.53;;;4.55;;
59024;SDS011;44806;48.008;13.666;2023-06-26T09:50:34;8.70;;;5.07;;
59024;SDS011;44806;48.008;13.666;2023-06-26T09:53:06;7.05;;;5.00;;
59024;SDS011;44806;48.008;13.666;2023-06-26T09:55:35;7.03;;;4.53;;
59024;SDS011;44806;48.008;13.666;2023-06-26T09:58:03;7.78;;;4.70;;
59024;SDS011;44806;48.008;13.666;2023-06-26T10:00:31;7.63;;;4.78;;
59024;SDS011;44806;48.008;13.666;2023-06-26T10:02:58;6.90;;;5.15;;
59024;SDS011;44806;48.008;13.666;2023-06-26T10:05:25;6.88;;;4.72;;
59024;SDS011;44806;48.008;13.666;2023-06-26T10:07:52;7.75;;;4.57;;
59024;SDS011;44806;48.008;13.666;2023-06-26T10:10:20;6.53;;;4.25;;
59024;SDS011;44806;48.008;13.666;2023-06-26T10:12:50;6.38;;;4.85;;
59024;SDS011;44806;48.008;13.666;2023-06-26T10:15:21;6.78;;;4.78;;
59024;SDS011;44806;48.008;13.666;2023-06-26T10:17:52;8.50;;;4.70;;
59024;SDS011;44806;48.008;13.666;2023-06-26T10:20:22;6.25;;;4.57;;
59024;SDS011;44806;48.008;13.666;2023-06-26T10:22:51;7.47;;;4.75;;
59024;SDS011;44806;48.008;13.666;2023-06-26T10:25:21;6.20;;;4.53;;
59024;SDS011;44806;48.008;13.666;2023-06-26T10:27:52;6.25;;;4.43;;
59024;SDS011;44806;48.008;13.666;2023-06-26T10:30:22;6.60;;;4.68;;
59024;SDS011;44806;48.008;13.666;2023-06-26T10:32:54;6.30;;;4.50;;
59024;SDS011;44806;48.008;13.666;2023-06-26T10:35:21;7.63;;;4.78;;
59024;SDS011;44806;48.008;13.666;2023-06-26T10:37:50;7.47;;;4.95;;
59024;SDS011;44806;48.008;13.666;2023-06-26T10:40:21;6.97;;;4.75;;
59024;SDS011;44806;48.008;13.666;2023-06-26T10:42:50;6.63;;;4.70;;
59024;SDS011;44806;48.008;13.666;2023-06-26T10:45:31;7.38;;;4.85;;
59024;SDS011;44806;48.008;13.666;2023-06-26T10:48:02;6.18;;;4.43;;
59024;SDS011;44806;48.008;13.666;2023-06-26T10:50:30;6.70;;;4.43;;
59024;SDS011;44806;48.008;13.666;2023-06-26T10:53:14;6.60;;;4.72;;
59024;SDS011;44806;48.008;13.666;2023-06-26T10:55:47;6.20;;;4.60;;
59024;SDS011;44806;48.008;13.666;2023-06-26T10:58:32;7.22;;;4.85;;
59024;SDS011;44806;48.008;13.666;2023-06-26T11:03:49;6.20;;;4.68;;
59024;SDS011;44806;48.008;13.666;2023-06-26T11:06:28;7.28;;;4.97;;
59024;SDS011;44806;48.008;13.666;2023-06-26T11:08:59;6.70;;;4.60;;
59024;SDS011;44806;48.008;13.666;2023-06-26T11:14:29;6.65;;;4.40;;
59024;SDS011;44806;48.008;13.666;2023-06-26T11:16:57;7.28;;;4.60;;
59024;SDS011;44806;48.008;13.666;2023-06-26T11:19:26;6.20;;;4.43;;
59024;SDS011;44806;48.008;13.666;2023-06-26T11:22:03;7.55;;;5.00;;
59024;SDS011;44806;48.008;13.666;2023-06-26T11:24:31;6.40;;;4.80;;
59024;SDS011;44806;48.008;13.666;2023-06-26T11:27:04;6.75;;;4.53;;
59024;SDS011;44806;48.008;13.666;2023-06-26T11:29:31;6.80;;;4.55;;
59024;SDS011;44806;48.008;13.666;2023-06-26T11:31:59;7.72;;;4.68;;
59024;SDS011;44806;48.008;13.666;2023-06-26T11:34:33;7.72;;;4.60;;
59024;SDS011;44806;48.008;13.666;2023-06-26T11:37:02;6.65;;;4.20;;
59024;SDS011;44806;48.008;13.666;2023-06-26T11:39:29;6.72;;;4.70;;
59024;SDS011;44806;48.008;13.666;2023-06-26T11:41:56;7.45;;;4.78;;
59024;SDS011;44806;48.008;13.666;2023-06-26T11:44:25;6.95;;;4.90;;
59024;SDS011;44806;48.008;13.666;2023-06-26T11:46:56;6.95;;;4.70;;
59024;SDS011;44806;48.008;13.666;2023-06-26T11:49:23;6.85;;;4.90;;
59024;SDS011;44806;48.008;13.666;2023-06-26T11:51:52;6.93;;;4.88;;
59024;SDS011;44806;48.008;13.666;2023-06-26T11:54:24;6.80;;;4.90;;
59024;SDS011;44806;48.008;13.666;2023-06-26T11:56:56;6.50;;;4.68;;
59024;SDS011;44806;48.008;13.666;2023-06-26T11:59:24;8.45;;;4.60;;
59024;SDS011;44806;48.008;13.666;2023-06-26T12:01:57;7.32;;;5.10;;
59024;SDS011;44806;48.008;13.666;2023-06-26T12:04:24;7.22;;;5.03;;
59024;SDS011;44806;48.008;13.666;2023-06-26T12:06:53;6.38;;;4.40;;
59024;SDS011;44806;48.008;13.666;2023-06-26T12:09:22;7.47;;;5.53;;
59024;SDS011;44806;48.008;13.666;2023-06-26T12:11:51;7.72;;;4.80;;
59024;SDS011;44806;48.008;13.666;2023-06-26T12:14:20;6.90;;;5.10;;
59024;SDS011;44806;48.008;13.666;2023-06-26T12:16:48;7.00;;;4.65;;
59024;SDS011;44806;48.008;13.666;2023-06-26T12:19:15;8.05;;;4.88;;
59024;SDS011;44806;48.008;13.666;2023-06-26T12:21:48;7.05;;;5.03;;
59024;SDS011;44806;48.008;13.666;2023-06-26T12:24:19;7.40;;;5.60;;
59024;SDS011;44806;48.008;13.666;2023-06-26T12:26:49;8.27;;;4.95;;
59024;SDS011;44806;48.008;13.666;2023-06-26T12:29:18;8.75;;;5.05;;
59024;SDS011;44806;48.008;13.666;2023-06-26T12:31:48;7.70;;;4.82;;
59024;SDS011;44806;48.008;13.666;2023-06-26T12:34:17;7.28;;;4.90;;
59024;SDS011;44806;48.008;13.666;2023-06-26T12:36:46;7.70;;;4.97;;
59024;SDS011;44806;48.008;13.666;2023-06-26T12:39:15;8.23;;;5.40;;
59024;SDS011;44806;48.008;13.666;2023-06-26T12:41:48;8.70;;;5.65;;
59024;SDS011;44806;48.008;13.666;2023-06-26T12:44:19;8.57;;;5.13;;
59024;SDS011;44806;48.008;13.666;2023-06-26T12:46:47;6.60;;;5.00;;
59024;SDS011;44806;48.008;13.666;2023-06-26T12:49:14;8.93;;;5.55;;
59024;SDS011;44806;48.008;13.666;2023-06-26T12:51:42;7.00;;;5.38;;
59024;SDS011;44806;48.008;13.666;2023-06-26T12:54:10;6.70;;;4.80;;
59024;SDS011;44806;48.008;13.666;2023-06-26T12:56:37;10.63;;;5.28;;
59024;SDS011;44806;48.008;13.666;2023-06-26T12:59:05;7.75;;;5.28;;
59024;SDS011;44806;48.008;13.666;2023-06-26T13:01:32;6.72;;;4.85;;
59024;SDS011;44806;48.008;13.666;2023-06-26T13:03:59;7.38;;;4.70;;
59024;SDS011;44806;48.008;13.666;2023-06-26T13:06:27;7.57;;;4.85;;
59024;SDS011;44806;48.008;13.666;2023-06-26T13:08:53;7.20;;;4.97;;
59024;SDS011;44806;48.008;13.666;2023-06-26T13:11:20;7.05;;;4.70;;
59024;SDS011;44806;48.008;13.666;2023-06-26T13:13:47;6.68;;;4.78;;
59024;SDS011;44806;48.008;13.666;2023-06-26T13:16:16;7.93;;;4.82;;
59024;SDS011;44806;48.008;13.666;2023-06-26T13:18:44;6.70;;;4.88;;
59024;SDS011;44806;48.008;13.666;2023-06-26T13:21:12;6.65;;;4.68;;
59024;SDS011;44806;48.008;13.666;2023-06-26T13:23:39;7.05;;;4.82;;
59024;SDS011;44806;48.008;13.666;2023-06-26T13:26:06;6.63;;;4.55;;
59024;SDS011;44806;48.008;13.666;2023-06-26T13:28:33;9.68;;;5.22;;
59024;SDS011;44806;48.008;13.666;2023-06-26T13:31:00;7.25;;;4.72;;
59024;SDS011;44806;48.008;13.666;2023-06-26T13:33:28;6.50;;;4.82;;
59024;SDS011;44806;48.008;13.666;2023-06-26T13:35:55;7.28;;;4.82;;
59024;SDS011;44806;48.008;13.666;2023-06-26T13:38:23;7.88;;;4.85;;
59024;SDS011;44806;48.008;13.666;2023-06-26T13:40:51;7.63;;;4.82;;
59024;SDS011;44806;48.008;13.666;2023-06-26T13:43:18;7.00;;;5.07;;
59024;SDS011;44806;48.008;13.666;2023-06-26T13:45:46;7.65;;;4.80;;
59024;SDS011;44806;48.008;13.666;2023-06-26T13:48:13;6.85;;;4.53;;
59024;SDS011;44806;48.008;13.666;2023-06-26T13:50:42;7.68;;;5.10;;
59024;SDS011;44806;48.008;13.666;2023-06-26T13:53:09;6.97;;;4.43;;
59024;SDS011;44806;48.008;13.666;2023-06-26T13:55:36;7.57;;;4.75;;
59024;SDS011;44806;48.008;13.666;2023-06-26T13:58:03;6.70;;;4.68;;
59024;SDS011;44806;48.008;13.666;2023-06-26T14:00:30;6.47;;;4.60;;
59024;SDS011;44806;48.008;13.666;2023-06-26T14:02:58;7.82;;;4.78;;
59024;SDS011;44806;48.008;13.666;2023-06-26T14:05:26;7.35;;;4.85;;
59024;SDS011;44806;48.008;13.666;2023-06-26T14:07:54;7.45;;;4.85;;
59024;SDS011;44806;48.008;13.666;2023-06-26T14:10:21;6.38;;;4.35;;
59024;SDS011;44806;48.008;13.666;2023-06-26T14:12:48;7.57;;;4.82;;
59024;SDS011;44806;48.008;13.666;2023-06-26T14:15:15;6.60;;;4.88;;
59024;SDS011;44806;48.008;13.666;2023-06-26T14:17:42;6.40;;;4.25;;
59024;SDS011;44806;48.008;13.666;2023-06-26T14:20:10;8.73;;;4.72;;
59024;SDS011;44806;48.008;13.666;2023-06-26T14:22:38;6.30;;;4.80;;
59024;SDS011;44806;48.008;13.666;2023-06-26T14:25:07;6.32;;;4.28;;
59024;SDS011;44806;48.008;13.666;2023-06-26T14:27:35;7.28;;;4.78;;
59024;SDS011;44806;48.008;13.666;2023-06-26T14:30:04;5.95;;;4.18;;
59024;SDS011;44806;48.008;13.666;2023-06-26T14:32:32;7.15;;;4.40;;
59024;SDS011;44806;48.008;13.666;2023-06-26T14:35:00;6.65;;;4.38;;
59024;SDS011;44806;48.008;13.666;2023-06-26T14:37:28;7.30;;;4.05;;
59024;SDS011;44806;48.008;13.666;2023-06-26T14:39:56;6.60;;;4.47;;
59024;SDS011;44806;48.008;13.666;2023-06-26T14:42:25;6.07;;;4.40;;
59024;SDS011;44806;48.008;13.666;2023-06-26T14:44:52;6.85;;;3.88;;